sensor_id;sensor_type;location;lat;lon;timestamp;P1;durP1;ratioP1;P2;durP2;ratioP2
8889;SDS011;4481;43.406;24.454;2023-02-26T00:00:39;34.90;;;21.70;;
8889;SDS011;4481;43.406;24.454;2023-02-26T00:03:05;39.67;;;23.80;;
8889;SDS011;4481;43.406;24.454;2023-02-26T00:05:32;35.00;;;22.20;;
8889;SDS011;4481;43.406;24.454;2023-02-26T00:07:58;34.27;;;22.60;;
8889;SDS011;4481;43.406;24.454;2023-02-26T00:10:24;31.37;;;20.97;;
8889;SDS011;4481;43.406;24.454;2023-02-26T00:12:51;36.10;;;21.20;;
8889;SDS011;4481;43.406;24.454;2023-02-26T00:15:17;29.73;;;20.67;;
8889;SDS011;4481;43.406;24.454;2023-02-26T00:17:47;28.90;;;20.60;;
8889;SDS011;4481;43.406;24.454;2023-02-26T00:20:17;34.97;;;20.47;;
8889;SDS011;4481;43.406;24.454;2023-02-26T00:22:44;30.70;;;20.13;;
8889;SDS011;4481;43.406;24.454;2023-02-26T00:25:11;27.70;;;18.10;;
8889;SDS011;4481;43.406;24.454;2023-02-26T00:27:37;26.47;;;17.43;;
8889;SDS011;4481;43.406;24.454;2023-02-26T00:30:05;30.40;;;17.50;;
8889;SDS011;4481;43.406;24.454;2023-02-26T00:32:33;28.23;;;16.60;;
8889;SDS011;4481;43.406;24.454;2023-02-26T00:35:00;26.70;;;16.03;;
8889;SDS011;4481;43.406;24.454;2023-02-26T00:37:30;31.60;;;18.50;;
8889;SDS011;4481;43.406;24.454;2023-02-26T00:40:18;21.33;;;17.13;;
8889;SDS011;4481;43.406;24.454;2023-02-26T00:42:48;26.77;;;18.03;;
8889;SDS011;4481;43.406;24.454;2023-02-26T00:45:15;29.67;;;19.13;;
8889;SDS011;4481;43.406;24.454;2023-02-26T00:47:43;23.83;;;17.80;;
8889;SDS011;4481;43.406;24.454;2023-02-26T00:50:16;33.33;;;18.20;;
8889;SDS011;4481;43.406;24.454;2023-02-26T00:52:47;28.07;;;19.43;;
8889;SDS011;4481;43.406;24.454;2023-02-26T00:55:18;29.47;;;17.53;;
8889;SDS011;4481;43.406;24.454;2023-02-26T00:57:44;30.90;;;17.07;;
8889;SDS011;4481;43.406;24.454;2023-02-26T01:00:11;27.67;;;16.50;;
8889;SDS011;4481;43.406;24.454;2023-02-26T01:02:38;31.80;;;17.03;;
8889;SDS011;4481;43.406;24.454;2023-02-26T01:05:05;25.67;;;17.27;;
8889;SDS011;4481;43.406;24.454;2023-02-26T01:07:34;22.73;;;15.93;;
8889;SDS011;4481;43.406;24.454;2023-02-26T01:10:06;25.57;;;17.07;;
8889;SDS011;4481;43.406;24.454;2023-02-26T01:12:35;24.87;;;16.10;;
8889;SDS011;4481;43.406;24.454;2023-02-26T01:15:02;30.93;;;16.13;;
8889;SDS011;4481;43.406;24.454;2023-02-26T01:17:30;23.10;;;15.90;;
8889;SDS011;4481;43.406;24.454;2023-02-26T01:20:01;27.03;;;16.33;;
8889;SDS011;4481;43.406;24.454;2023-02-26T01:22:32;35.83;;;17.43;;
8889;SDS011;4481;43.406;24.454;2023-02-26T01:25:03;25.17;;;17.40;;
8889;SDS011;4481;43.406;24.454;2023-02-26T01:27:33;23.90;;;16.00;;
8889;SDS011;4481;43.406;24.454;2023-02-26T01:30:00;27.70;;;15.90;;
8889;SDS011;4481;43.406;24.454;2023-02-26T01:32:28;24.30;;;14.40;;
8889;SDS011;4481;43.406;24.454;2023-02-26T01:35:04;23.17;;;14.63;;
8889;SDS011;4481;43.406;24.454;2023-02-26T01:37:35;22.80;;;14.63;;
8889;SDS011;4481;43.406;24.454;2023-02-26T01:40:19;22.33;;;15.37;;
8889;SDS011;4481;43.406;24.454;2023-02-26T01:43:18;25.20;;;15.80;;
8889;SDS011;4481;43.406;24.454;2023-02-26T01:45:54;23.70;;;15.67;;
8889;SDS011;4481;43.406;24.454;2023-02-26T01:48:30;29.67;;;15.40;;
8889;SDS011;4481;43.406;24.454;2023-02-26T01:51:01;26.73;;;15.53;;
8889;SDS011;4481;43.406;24.454;2023-02-26T01:53:27;23.47;;;15.43;;
8889;SDS011;4481;43.406;24.454;2023-02-26T01:55:55;22.00;;;14.43;;
8889;SDS011;4481;43.406;24.454;2023-02-26T01:58:24;26.10;;;15.67;;
8889;SDS011;4481;43.406;24.454;2023-02-26T02:00:52;26.07;;;16.20;;
8889;SDS011;4481;43.406;24.454;2023-02-26T02:03:19;27.47;;;16.33;;
8889;SDS011;4481;43.406;24.454;2023-02-26T02:05:47;25.70;;;15.40;;
8889;SDS011;4481;43.406;24.454;2023-02-26T02:08:17;21.93;;;15.20;;
8889;SDS011;4481;43.406;24.454;2023-02-26T02:10:44;29.50;;;15.80;;
8889;SDS011;4481;43.406;24.454;2023-02-26T02:13:15;27.70;;;13.40;;
8889;SDS011;4481;43.406;24.454;2023-02-26T02:15:54;21.57;;;12.87;;
8889;SDS011;4481;43.406;24.454;2023-02-26T02:18:30;20.97;;;11.30;;
8889;SDS011;4481;43.406;24.454;2023-02-26T02:21:10;18.57;;;12.53;;
8889;SDS011;4481;43.406;24.454;2023-02-26T02:23:54;23.97;;;10.33;;
8889;SDS011;4481;43.406;24.454;2023-02-26T02:26:36;21.37;;;10.77;;
8889;SDS011;4481;43.406;24.454;2023-02-26T02:32:18;14.07;;;8.60;;
8889;SDS011;4481;43.406;24.454;2023-02-26T02:34:47;13.33;;;8.77;;
8889;SDS011;4481;43.406;24.454;2023-02-26T02:37:18;12.53;;;7.30;;
8889;SDS011;4481;43.406;24.454;2023-02-26T02:39:50;13.80;;;7.60;;
8889;SDS011;4481;43.406;24.454;2023-02-26T02:42:19;10.33;;;7.13;;
8889;SDS011;4481;43.406;24.454;2023-02-26T02:44:52;15.00;;;8.30;;
8889;SDS011;4481;43.406;24.454;2023-02-26T02:47:24;12.27;;;6.63;;
8889;SDS011;4481;43.406;24.454;2023-02-26T02:49:57;18.80;;;6.53;;
8889;SDS011;4481;43.406;24.454;2023-02-26T02:52:28;15.33;;;6.57;;
8889;SDS011;4481;43.406;24.454;2023-02-26T02:55:01;13.80;;;5.80;;
8889;SDS011;4481;43.406;24.454;2023-02-26T02:57:32;13.47;;;5.87;;
8889;SDS011;4481;43.406;24.454;2023-02-26T03:00:04;10.97;;;5.57;;
8889;SDS011;4481;43.406;24.454;2023-02-26T03:02:36;11.53;;;5.40;;
8889;SDS011;4481;43.406;24.454;2023-02-26T03:05:07;10.80;;;5.03;;
8889;SDS011;4481;43.406;24.454;2023-02-26T03:07:35;13.37;;;5.13;;
8889;SDS011;4481;43.406;24.454;2023-02-26T03:10:06;14.70;;;5.43;;
8889;SDS011;4481;43.406;24.454;2023-02-26T03:12:33;14.60;;;5.13;;
8889;SDS011;4481;43.406;24.454;2023-02-26T03:15:00;16.37;;;5.00;;
8889;SDS011;4481;43.406;24.454;2023-02-26T03:17:28;14.23;;;5.43;;
8889;SDS011;4481;43.406;24.454;2023-02-26T03:20:02;14.83;;;5.27;;
8889;SDS011;4481;43.406;24.454;2023-02-26T03:22:40;8.43;;;5.13;;
8889;SDS011;4481;43.406;24.454;2023-02-26T03:25:15;10.57;;;4.37;;
8889;SDS011;4481;43.406;24.454;2023-02-26T03:27:46;13.50;;;4.87;;
8889;SDS011;4481;43.406;24.454;2023-02-26T03:30:18;10.07;;;4.60;;
8889;SDS011;4481;43.406;24.454;2023-02-26T03:32:50;13.03;;;5.47;;
8889;SDS011;4481;43.406;24.454;2023-02-26T03:35:29;15.47;;;5.10;;
8889;SDS011;4481;43.406;24.454;2023-02-26T03:38:02;10.97;;;5.97;;
8889;SDS011;4481;43.406;24.454;2023-02-26T03:40:33;14.77;;;6.57;;
8889;SDS011;4481;43.406;24.454;2023-02-26T03:43:03;17.77;;;5.70;;
8889;SDS011;4481;43.406;24.454;2023-02-26T03:45:35;12.83;;;6.07;;
8889;SDS011;4481;43.406;24.454;2023-02-26T03:48:04;12.60;;;5.93;;
8889;SDS011;4481;43.406;24.454;2023-02-26T03:50:36;12.07;;;5.83;;
8889;SDS011;4481;43.406;24.454;2023-02-26T03:53:06;16.30;;;6.47;;
8889;SDS011;4481;43.406;24.454;2023-02-26T03:55:37;11.13;;;5.37;;
8889;SDS011;4481;43.406;24.454;2023-02-26T03:58:07;10.40;;;5.50;;
8889;SDS011;4481;43.406;24.454;2023-02-26T04:00:34;16.40;;;5.53;;
8889;SDS011;4481;43.406;24.454;2023-02-26T04:03:03;13.17;;;6.20;;
8889;SDS011;4481;43.406;24.454;2023-02-26T04:05:35;13.10;;;5.73;;
8889;SDS011;4481;43.406;24.454;2023-02-26T04:08:06;15.47;;;6.90;;
8889;SDS011;4481;43.406;24.454;2023-02-26T04:10:33;13.17;;;6.77;;
8889;SDS011;4481;43.406;24.454;2023-02-26T04:13:03;14.90;;;5.97;;
8889;SDS011;4481;43.406;24.454;2023-02-26T04:15:30;20.27;;;6.80;;
8889;SDS011;4481;43.406;24.454;2023-02-26T04:17:56;11.90;;;5.57;;
8889;SDS011;4481;43.406;24.454;2023-02-26T04:20:22;12.00;;;6.27;;
8889;SDS011;4481;43.406;24.454;2023-02-26T04:22:49;12.57;;;6.50;;
8889;SDS011;4481;43.406;24.454;2023-02-26T04:25:15;11.80;;;6.67;;
8889;SDS011;4481;43.406;24.454;2023-02-26T04:27:41;14.87;;;6.77;;
8889;SDS011;4481;43.406;24.454;2023-02-26T04:30:08;16.13;;;6.67;;
8889;SDS011;4481;43.406;24.454;2023-02-26T04:32:35;14.80;;;5.87;;
8889;SDS011;4481;43.406;24.454;2023-02-26T04:35:01;19.00;;;6.17;;
8889;SDS011;4481;43.406;24.454;2023-02-26T04:37:28;19.20;;;6.47;;
8889;SDS011;4481;43.406;24.454;2023-02-26T04:39:54;15.23;;;5.90;;
8889;SDS011;4481;43.406;24.454;2023-02-26T04:42:20;10.90;;;6.40;;
8889;SDS011;4481;43.406;24.454;2023-02-26T04:44:47;16.40;;;6.30;;
8889;SDS011;4481;43.406;24.454;2023-02-26T04:47:13;11.40;;;5.17;;
8889;SDS011;4481;43.406;24.454;2023-02-26T04:49:39;13.40;;;5.37;;
8889;SDS011;4481;43.406;24.454;2023-02-26T04:52:05;17.60;;;6.03;;
8889;SDS011;4481;43.406;24.454;2023-02-26T04:54:31;11.20;;;5.63;;
8889;SDS011;4481;43.406;24.454;2023-02-26T04:56:58;16.13;;;5.43;;
8889;SDS011;4481;43.406;24.454;2023-02-26T04:59:24;14.67;;;6.63;;
8889;SDS011;4481;43.406;24.454;2023-02-26T05:01:51;17.40;;;5.93;;
8889;SDS011;4481;43.406;24.454;2023-02-26T05:04:17;13.43;;;6.60;;
8889;SDS011;4481;43.406;24.454;2023-02-26T05:06:43;13.93;;;7.20;;
8889;SDS011;4481;43.406;24.454;2023-02-26T05:09:09;12.53;;;7.07;;
8889;SDS011;4481;43.406;24.454;2023-02-26T05:11:35;12.83;;;6.17;;
8889;SDS011;4481;43.406;24.454;2023-02-26T05:14:02;10.97;;;6.53;;
8889;SDS011;4481;43.406;24.454;2023-02-26T05:16:28;15.00;;;6.40;;
8889;SDS011;4481;43.406;24.454;2023-02-26T05:18:54;21.53;;;6.30;;
8889;SDS011;4481;43.406;24.454;2023-02-26T05:21:21;9.80;;;5.40;;
8889;SDS011;4481;43.406;24.454;2023-02-26T05:23:47;15.10;;;6.33;;
8889;SDS011;4481;43.406;24.454;2023-02-26T05:26:13;16.53;;;6.03;;
8889;SDS011;4481;43.406;24.454;2023-02-26T05:28:39;15.43;;;5.77;;
8889;SDS011;4481;43.406;24.454;2023-02-26T05:31:06;11.73;;;5.90;;
8889;SDS011;4481;43.406;24.454;2023-02-26T05:33:32;13.90;;;5.83;;
8889;SDS011;4481;43.406;24.454;2023-02-26T05:35:58;15.13;;;6.33;;
8889;SDS011;4481;43.406;24.454;2023-02-26T05:38:24;12.07;;;6.10;;
8889;SDS011;4481;43.406;24.454;2023-02-26T05:40:54;17.23;;;5.93;;
8889;SDS011;4481;43.406;24.454;2023-02-26T05:43:21;14.33;;;5.73;;
8889;SDS011;4481;43.406;24.454;2023-02-26T05:45:48;12.60;;;5.43;;
8889;SDS011;4481;43.406;24.454;2023-02-26T05:48:15;11.37;;;5.77;;
8889;SDS011;4481;43.406;24.454;2023-02-26T05:50:41;12.03;;;5.13;;
8889;SDS011;4481;43.406;24.454;2023-02-26T05:53:07;12.43;;;5.53;;
8889;SDS011;4481;43.406;24.454;2023-02-26T05:55:33;9.70;;;5.37;;
8889;SDS011;4481;43.406;24.454;2023-02-26T05:57:59;8.27;;;5.40;;
8889;SDS011;4481;43.406;24.454;2023-02-26T06:00:27;10.07;;;5.20;;
8889;SDS011;4481;43.406;24.454;2023-02-26T06:02:53;8.20;;;4.93;;
8889;SDS011;4481;43.406;24.454;2023-02-26T06:05:20;11.10;;;5.40;;
8889;SDS011;4481;43.406;24.454;2023-02-26T06:07:46;16.17;;;5.57;;
8889;SDS011;4481;43.406;24.454;2023-02-26T06:10:12;11.87;;;5.60;;
8889;SDS011;4481;43.406;24.454;2023-02-26T06:12:38;10.23;;;5.43;;
8889;SDS011;4481;43.406;24.454;2023-02-26T06:15:04;13.87;;;4.80;;
8889;SDS011;4481;43.406;24.454;2023-02-26T06:17:32;15.80;;;4.87;;
8889;SDS011;4481;43.406;24.454;2023-02-26T06:19:58;11.30;;;5.60;;
8889;SDS011;4481;43.406;24.454;2023-02-26T06:22:25;14.93;;;5.10;;
8889;SDS011;4481;43.406;24.454;2023-02-26T06:24:51;10.73;;;4.77;;
8889;SDS011;4481;43.406;24.454;2023-02-26T06:27:19;11.80;;;6.10;;
8889;SDS011;4481;43.406;24.454;2023-02-26T06:29:45;16.97;;;5.63;;
8889;SDS011;4481;43.406;24.454;2023-02-26T06:32:11;13.17;;;5.67;;
8889;SDS011;4481;43.406;24.454;2023-02-26T06:34:37;9.37;;;4.60;;
8889;SDS011;4481;43.406;24.454;2023-02-26T06:37:03;15.67;;;4.73;;
8889;SDS011;4481;43.406;24.454;2023-02-26T06:39:30;9.77;;;4.73;;
8889;SDS011;4481;43.406;24.454;2023-02-26T06:41:57;14.63;;;5.67;;
8889;SDS011;4481;43.406;24.454;2023-02-26T06:44:23;11.63;;;5.13;;
8889;SDS011;4481;43.406;24.454;2023-02-26T06:46:49;10.17;;;4.87;;
8889;SDS011;4481;43.406;24.454;2023-02-26T06:49:15;12.13;;;5.03;;
8889;SDS011;4481;43.406;24.454;2023-02-26T06:51:42;13.60;;;4.93;;
8889;SDS011;4481;43.406;24.454;2023-02-26T06:54:08;16.00;;;5.30;;
8889;SDS011;4481;43.406;24.454;2023-02-26T06:56:34;14.87;;;4.93;;
8889;SDS011;4481;43.406;24.454;2023-02-26T06:59:01;10.37;;;4.90;;
8889;SDS011;4481;43.406;24.454;2023-02-26T07:01:27;11.40;;;4.97;;
8889;SDS011;4481;43.406;24.454;2023-02-26T07:03:53;8.00;;;4.23;;
8889;SDS011;4481;43.406;24.454;2023-02-26T07:06:19;12.00;;;5.30;;
8889;SDS011;4481;43.406;24.454;2023-02-26T07:08:45;15.07;;;5.33;;
8889;SDS011;4481;43.406;24.454;2023-02-26T07:11:11;11.80;;;5.00;;
8889;SDS011;4481;43.406;24.454;2023-02-26T07:13:39;12.67;;;5.07;;
8889;SDS011;4481;43.406;24.454;2023-02-26T07:16:06;13.67;;;4.87;;
8889;SDS011;4481;43.406;24.454;2023-02-26T07:18:32;18.13;;;4.90;;
8889;SDS011;4481;43.406;24.454;2023-02-26T07:20:58;16.83;;;5.37;;
8889;SDS011;4481;43.406;24.454;2023-02-26T07:23:24;13.17;;;4.80;;
8889;SDS011;4481;43.406;24.454;2023-02-26T07:25:50;19.57;;;4.90;;
8889;SDS011;4481;43.406;24.454;2023-02-26T07:28:17;12.20;;;5.20;;
8889;SDS011;4481;43.406;24.454;2023-02-26T07:30:45;15.90;;;4.70;;
8889;SDS011;4481;43.406;24.454;2023-02-26T07:33:11;15.13;;;5.13;;
8889;SDS011;4481;43.406;24.454;2023-02-26T07:35:37;16.50;;;5.60;;
8889;SDS011;4481;43.406;24.454;2023-02-26T07:38:04;13.53;;;5.10;;
8889;SDS011;4481;43.406;24.454;2023-02-26T07:40:31;12.50;;;6.10;;
8889;SDS011;4481;43.406;24.454;2023-02-26T07:42:57;11.73;;;6.00;;
8889;SDS011;4481;43.406;24.454;2023-02-26T07:45:23;16.17;;;6.13;;
8889;SDS011;4481;43.406;24.454;2023-02-26T07:47:50;9.43;;;4.57;;
8889;SDS011;4481;43.406;24.454;2023-02-26T07:50:17;13.97;;;4.60;;
8889;SDS011;4481;43.406;24.454;2023-02-26T07:52:44;8.53;;;4.60;;
8889;SDS011;4481;43.406;24.454;2023-02-26T07:55:11;14.57;;;4.60;;
8889;SDS011;4481;43.406;24.454;2023-02-26T07:57:37;16.13;;;4.47;;
8889;SDS011;4481;43.406;24.454;2023-02-26T08:00:04;14.17;;;4.53;;
8889;SDS011;4481;43.406;24.454;2023-02-26T08:02:31;13.97;;;4.23;;
8889;SDS011;4481;43.406;24.454;2023-02-26T08:04:58;12.73;;;4.23;;
8889;SDS011;4481;43.406;24.454;2023-02-26T08:07:24;12.33;;;4.67;;
8889;SDS011;4481;43.406;24.454;2023-02-26T08:09:50;18.50;;;5.07;;
8889;SDS011;4481;43.406;24.454;2023-02-26T08:12:16;7.97;;;3.63;;
8889;SDS011;4481;43.406;24.454;2023-02-26T08:14:43;11.87;;;4.50;;
8889;SDS011;4481;43.406;24.454;2023-02-26T08:17:10;14.73;;;4.23;;
8889;SDS011;4481;43.406;24.454;2023-02-26T08:19:36;14.70;;;4.80;;
8889;SDS011;4481;43.406;24.454;2023-02-26T08:22:03;13.97;;;4.80;;
8889;SDS011;4481;43.406;24.454;2023-02-26T08:24:29;15.90;;;4.80;;
8889;SDS011;4481;43.406;24.454;2023-02-26T08:26:56;13.27;;;4.40;;
8889;SDS011;4481;43.406;24.454;2023-02-26T08:29:22;11.47;;;4.80;;
8889;SDS011;4481;43.406;24.454;2023-02-26T08:31:49;9.80;;;4.47;;
8889;SDS011;4481;43.406;24.454;2023-02-26T08:34:15;18.83;;;5.67;;
8889;SDS011;4481;43.406;24.454;2023-02-26T08:36:41;16.37;;;4.60;;
8889;SDS011;4481;43.406;24.454;2023-02-26T08:39:08;13.83;;;4.30;;
8889;SDS011;4481;43.406;24.454;2023-02-26T08:41:34;12.37;;;5.00;;
8889;SDS011;4481;43.406;24.454;2023-02-26T08:44:00;14.87;;;4.50;;
8889;SDS011;4481;43.406;24.454;2023-02-26T08:46:27;12.17;;;4.63;;
8889;SDS011;4481;43.406;24.454;2023-02-26T08:48:53;25.70;;;4.70;;
8889;SDS011;4481;43.406;24.454;2023-02-26T08:51:19;17.60;;;4.40;;
8889;SDS011;4481;43.406;24.454;2023-02-26T08:53:46;17.67;;;5.50;;
8889;SDS011;4481;43.406;24.454;2023-02-26T08:56:15;18.77;;;5.23;;
8889;SDS011;4481;43.406;24.454;2023-02-26T08:58:41;11.87;;;5.17;;
8889;SDS011;4481;43.406;24.454;2023-02-26T09:01:08;19.00;;;5.07;;
8889;SDS011;4481;43.406;24.454;2023-02-26T09:03:34;10.00;;;4.37;;
8889;SDS011;4481;43.406;24.454;2023-02-26T09:06:00;14.60;;;4.80;;
8889;SDS011;4481;43.406;24.454;2023-02-26T09:08:28;17.80;;;5.17;;
8889;SDS011;4481;43.406;24.454;2023-02-26T09:10:58;11.47;;;4.00;;
8889;SDS011;4481;43.406;24.454;2023-02-26T09:13:25;19.90;;;5.10;;
8889;SDS011;4481;43.406;24.454;2023-02-26T09:15:51;18.40;;;5.47;;
8889;SDS011;4481;43.406;24.454;2023-02-26T09:18:17;11.53;;;4.60;;
8889;SDS011;4481;43.406;24.454;2023-02-26T09:20:43;18.10;;;5.13;;
8889;SDS011;4481;43.406;24.454;2023-02-26T09:23:10;15.73;;;5.27;;
8889;SDS011;4481;43.406;24.454;2023-02-26T09:25:36;11.43;;;5.30;;
8889;SDS011;4481;43.406;24.454;2023-02-26T09:28:03;16.60;;;4.73;;
8889;SDS011;4481;43.406;24.454;2023-02-26T09:30:30;18.30;;;5.07;;
8889;SDS011;4481;43.406;24.454;2023-02-26T09:32:57;15.43;;;5.27;;
8889;SDS011;4481;43.406;24.454;2023-02-26T09:35:23;17.37;;;5.17;;
8889;SDS011;4481;43.406;24.454;2023-02-26T09:37:49;10.27;;;4.50;;
8889;SDS011;4481;43.406;24.454;2023-02-26T09:40:20;13.73;;;4.83;;
8889;SDS011;4481;43.406;24.454;2023-02-26T09:43:01;16.23;;;5.33;;
8889;SDS011;4481;43.406;24.454;2023-02-26T09:45:41;15.30;;;5.40;;
8889;SDS011;4481;43.406;24.454;2023-02-26T09:48:10;14.03;;;4.90;;
8889;SDS011;4481;43.406;24.454;2023-02-26T09:50:40;13.07;;;4.67;;
8889;SDS011;4481;43.406;24.454;2023-02-26T09:53:10;15.87;;;4.37;;
8889;SDS011;4481;43.406;24.454;2023-02-26T09:55:42;14.07;;;4.43;;
8889;SDS011;4481;43.406;24.454;2023-02-26T09:58:11;25.70;;;5.30;;
8889;SDS011;4481;43.406;24.454;2023-02-26T10:00:45;14.07;;;5.13;;
8889;SDS011;4481;43.406;24.454;2023-02-26T10:03:18;19.80;;;5.43;;
8889;SDS011;4481;43.406;24.454;2023-02-26T10:06:03;12.47;;;4.77;;
8889;SDS011;4481;43.406;24.454;2023-02-26T10:08:45;14.23;;;4.87;;
8889;SDS011;4481;43.406;24.454;2023-02-26T10:11:22;19.43;;;4.90;;
8889;SDS011;4481;43.406;24.454;2023-02-26T10:13:55;11.97;;;5.03;;
8889;SDS011;4481;43.406;24.454;2023-02-26T10:16:26;17.70;;;5.03;;
8889;SDS011;4481;43.406;24.454;2023-02-26T10:18:58;24.53;;;5.50;;
8889;SDS011;4481;43.406;24.454;2023-02-26T10:21:29;18.27;;;5.03;;
8889;SDS011;4481;43.406;24.454;2023-02-26T10:24:03;17.13;;;5.27;;
8889;SDS011;4481;43.406;24.454;2023-02-26T10:26:36;19.30;;;4.90;;
8889;SDS011;4481;43.406;24.454;2023-02-26T10:29:06;15.90;;;5.23;;
8889;SDS011;4481;43.406;24.454;2023-02-26T10:31:45;13.97;;;4.40;;
8889;SDS011;4481;43.406;24.454;2023-02-26T10:34:24;22.33;;;4.90;;
8889;SDS011;4481;43.406;24.454;2023-02-26T10:36:57;12.10;;;5.40;;
8889;SDS011;4481;43.406;24.454;2023-02-26T10:39:31;18.33;;;6.77;;
8889;SDS011;4481;43.406;24.454;2023-02-26T10:42:04;21.37;;;11.83;;
8889;SDS011;4481;43.406;24.454;2023-02-26T10:44:40;16.00;;;5.33;;
8889;SDS011;4481;43.406;24.454;2023-02-26T10:47:14;12.93;;;5.17;;
8889;SDS011;4481;43.406;24.454;2023-02-26T10:49:51;14.23;;;6.00;;
8889;SDS011;4481;43.406;24.454;2023-02-26T10:52:22;15.13;;;5.40;;
8889;SDS011;4481;43.406;24.454;2023-02-26T10:58:03;16.03;;;4.60;;
8889;SDS011;4481;43.406;24.454;2023-02-26T11:00:31;12.10;;;5.13;;
8889;SDS011;4481;43.406;24.454;2023-02-26T11:03:00;23.40;;;4.90;;
8889;SDS011;4481;43.406;24.454;2023-02-26T11:05:30;20.47;;;4.90;;
8889;SDS011;4481;43.406;24.454;2023-02-26T11:07:58;14.70;;;5.27;;
8889;SDS011;4481;43.406;24.454;2023-02-26T11:10:38;14.37;;;5.13;;
8889;SDS011;4481;43.406;24.454;2023-02-26T11:13:06;14.83;;;4.80;;
8889;SDS011;4481;43.406;24.454;2023-02-26T11:15:33;16.87;;;5.37;;
8889;SDS011;4481;43.406;24.454;2023-02-26T11:18:01;17.93;;;5.37;;
8889;SDS011;4481;43.406;24.454;2023-02-26T11:20:29;14.07;;;4.50;;
8889;SDS011;4481;43.406;24.454;2023-02-26T11:22:59;15.93;;;5.23;;
8889;SDS011;4481;43.406;24.454;2023-02-26T11:25:29;11.37;;;4.73;;
8889;SDS011;4481;43.406;24.454;2023-02-26T11:27:58;14.17;;;4.73;;
8889;SDS011;4481;43.406;24.454;2023-02-26T11:30:27;21.30;;;5.47;;
8889;SDS011;4481;43.406;24.454;2023-02-26T11:32:57;21.53;;;5.17;;
8889;SDS011;4481;43.406;24.454;2023-02-26T11:35:29;19.23;;;5.13;;
8889;SDS011;4481;43.406;24.454;2023-02-26T11:37:56;18.70;;;4.63;;
8889;SDS011;4481;43.406;24.454;2023-02-26T11:40:34;20.30;;;5.57;;
8889;SDS011;4481;43.406;24.454;2023-02-26T11:43:04;16.90;;;5.37;;
8889;SDS011;4481;43.406;24.454;2023-02-26T11:45:35;16.43;;;5.00;;
8889;SDS011;4481;43.406;24.454;2023-02-26T11:48:09;15.33;;;5.37;;
8889;SDS011;4481;43.406;24.454;2023-02-26T11:50:43;24.70;;;6.67;;
8889;SDS011;4481;43.406;24.454;2023-02-26T11:53:15;17.63;;;5.53;;
8889;SDS011;4481;43.406;24.454;2023-02-26T11:55:44;16.13;;;5.20;;
8889;SDS011;4481;43.406;24.454;2023-02-26T11:58:16;21.33;;;5.60;;
8889;SDS011;4481;43.406;24.454;2023-02-26T12:00:44;15.00;;;5.40;;
8889;SDS011;4481;43.406;24.454;2023-02-26T12:03:14;20.80;;;6.10;;
8889;SDS011;4481;43.406;24.454;2023-02-26T12:05:43;14.83;;;5.00;;
8889;SDS011;4481;43.406;24.454;2023-02-26T12:08:13;19.43;;;4.70;;
8889;SDS011;4481;43.406;24.454;2023-02-26T12:10:47;20.73;;;6.10;;
8889;SDS011;4481;43.406;24.454;2023-02-26T12:13:21;18.37;;;5.83;;
8889;SDS011;4481;43.406;24.454;2023-02-26T12:15:57;13.07;;;5.53;;
8889;SDS011;4481;43.406;24.454;2023-02-26T12:18:36;24.90;;;5.67;;
8889;SDS011;4481;43.406;24.454;2023-02-26T12:21:17;20.93;;;5.33;;
8889;SDS011;4481;43.406;24.454;2023-02-26T12:23:58;16.50;;;6.17;;
8889;SDS011;4481;43.406;24.454;2023-02-26T12:26:41;20.93;;;5.37;;
8889;SDS011;4481;43.406;24.454;2023-02-26T12:38:07;21.70;;;5.67;;
8889;SDS011;4481;43.406;24.454;2023-02-26T12:40:43;20.20;;;5.87;;
8889;SDS011;4481;43.406;24.454;2023-02-26T12:43:20;19.40;;;6.10;;
8889;SDS011;4481;43.406;24.454;2023-02-26T12:45:55;17.17;;;5.13;;
8889;SDS011;4481;43.406;24.454;2023-02-26T12:51:43;12.33;;;5.10;;
8889;SDS011;4481;43.406;24.454;2023-02-26T12:54:28;12.17;;;5.60;;
8889;SDS011;4481;43.406;24.454;2023-02-26T12:57:06;21.07;;;5.50;;
8889;SDS011;4481;43.406;24.454;2023-02-26T12:59:50;18.57;;;5.60;;
8889;SDS011;4481;43.406;24.454;2023-02-26T13:02:37;18.60;;;5.00;;
8889;SDS011;4481;43.406;24.454;2023-02-26T13:05:33;15.53;;;4.97;;
8889;SDS011;4481;43.406;24.454;2023-02-26T13:08:18;15.70;;;5.10;;
8889;SDS011;4481;43.406;24.454;2023-02-26T13:11:00;22.30;;;5.53;;
8889;SDS011;4481;43.406;24.454;2023-02-26T13:13:42;19.23;;;5.73;;
8889;SDS011;4481;43.406;24.454;2023-02-26T13:16:19;16.30;;;5.80;;
8889;SDS011;4481;43.406;24.454;2023-02-26T13:18:58;18.70;;;5.57;;
8889;SDS011;4481;43.406;24.454;2023-02-26T13:21:33;21.43;;;5.60;;
8889;SDS011;4481;43.406;24.454;2023-02-26T13:24:04;15.80;;;4.97;;
8889;SDS011;4481;43.406;24.454;2023-02-26T13:26:34;10.90;;;4.87;;
8889;SDS011;4481;43.406;24.454;2023-02-26T13:29:02;17.37;;;4.90;;
8889;SDS011;4481;43.406;24.454;2023-02-26T13:31:33;16.93;;;4.80;;
8889;SDS011;4481;43.406;24.454;2023-02-26T13:34:03;19.03;;;5.17;;
8889;SDS011;4481;43.406;24.454;2023-02-26T13:36:35;14.60;;;5.00;;
8889;SDS011;4481;43.406;24.454;2023-02-26T13:39:07;12.90;;;4.70;;
8889;SDS011;4481;43.406;24.454;2023-02-26T13:41:48;17.63;;;5.67;;
8889;SDS011;4481;43.406;24.454;2023-02-26T13:44:24;18.70;;;5.60;;
8889;SDS011;4481;43.406;24.454;2023-02-26T13:47:04;17.87;;;5.27;;
8889;SDS011;4481;43.406;24.454;2023-02-26T13:49:49;11.10;;;4.57;;
8889;SDS011;4481;43.406;24.454;2023-02-26T13:52:23;20.43;;;5.63;;
8889;SDS011;4481;43.406;24.454;2023-02-26T13:54:51;16.07;;;4.67;;
8889;SDS011;4481;43.406;24.454;2023-02-26T13:57:35;18.60;;;4.63;;
8889;SDS011;4481;43.406;24.454;2023-02-26T14:00:09;21.33;;;5.10;;
8889;SDS011;4481;43.406;24.454;2023-02-26T14:02:50;16.03;;;5.27;;
8889;SDS011;4481;43.406;24.454;2023-02-26T14:05:29;12.97;;;4.73;;
8889;SDS011;4481;43.406;24.454;2023-02-26T14:08:29;21.33;;;5.33;;
8889;SDS011;4481;43.406;24.454;2023-02-26T14:11:23;15.73;;;5.57;;
8889;SDS011;4481;43.406;24.454;2023-02-26T14:23:09;22.53;;;4.90;;
8889;SDS011;4481;43.406;24.454;2023-02-26T14:25:39;11.57;;;5.33;;
8889;SDS011;4481;43.406;24.454;2023-02-26T14:28:30;13.57;;;5.00;;
8889;SDS011;4481;43.406;24.454;2023-02-26T14:31:15;16.43;;;4.83;;
8889;SDS011;4481;43.406;24.454;2023-02-26T14:33:56;16.90;;;4.70;;
8889;SDS011;4481;43.406;24.454;2023-02-26T14:36:27;16.50;;;5.43;;
8889;SDS011;4481;43.406;24.454;2023-02-26T14:39:00;14.60;;;4.90;;
8889;SDS011;4481;43.406;24.454;2023-02-26T14:41:30;15.10;;;4.47;;
8889;SDS011;4481;43.406;24.454;2023-02-26T14:44:01;12.00;;;4.13;;
8889;SDS011;4481;43.406;24.454;2023-02-26T14:46:34;14.67;;;4.90;;
8889;SDS011;4481;43.406;24.454;2023-02-26T14:49:00;12.53;;;4.73;;
8889;SDS011;4481;43.406;24.454;2023-02-26T14:51:31;13.37;;;4.20;;
8889;SDS011;4481;43.406;24.454;2023-02-26T14:54:17;16.77;;;4.70;;
8889;SDS011;4481;43.406;24.454;2023-02-26T14:56:58;19.53;;;5.17;;
8889;SDS011;4481;43.406;24.454;2023-02-26T14:59:32;13.37;;;4.77;;
8889;SDS011;4481;43.406;24.454;2023-02-26T15:02:19;13.70;;;4.70;;
8889;SDS011;4481;43.406;24.454;2023-02-26T15:04:55;13.40;;;4.70;;
8889;SDS011;4481;43.406;24.454;2023-02-26T15:07:50;13.83;;;5.00;;
8889;SDS011;4481;43.406;24.454;2023-02-26T15:10:32;16.10;;;5.77;;
8889;SDS011;4481;43.406;24.454;2023-02-26T15:13:21;21.60;;;5.20;;
8889;SDS011;4481;43.406;24.454;2023-02-26T15:15:59;17.83;;;5.80;;
8889;SDS011;4481;43.406;24.454;2023-02-26T15:18:44;12.00;;;4.53;;
8889;SDS011;4481;43.406;24.454;2023-02-26T15:21:21;21.63;;;12.50;;
8889;SDS011;4481;43.406;24.454;2023-02-26T15:23:55;23.17;;;13.40;;
8889;SDS011;4481;43.406;24.454;2023-02-26T15:26:25;22.17;;;14.33;;
8889;SDS011;4481;43.406;24.454;2023-02-26T15:28:53;23.43;;;14.27;;
8889;SDS011;4481;43.406;24.454;2023-02-26T15:31:26;25.20;;;14.70;;
8889;SDS011;4481;43.406;24.454;2023-02-26T15:33:56;22.57;;;15.70;;